createdAt,value
2017-05-13T09:15:14.500Z,47
2017-05-13T09:16:16.139Z,49
2017-05-13T09:17:17.787Z,50
2017-05-13T09:18:19.448Z,50
2017-05-13T09:49:32.805Z,49
2017-05-13T09:50:34.030Z,48
2017-05-13T09:51:52.736Z,70
2017-05-13T09:52:54.373Z,49
2017-05-13T09:53:48.023Z,70
2017-05-13T09:54:49.245Z,48
2017-05-13T09:55:50.462Z,48
2017-05-13T09:56:51.693Z,48
2017-05-13T09:57:52.965Z,48
2017-05-13T09:58:54.185Z,48
2017-05-13T09:59:55.416Z,48
2017-05-13T10:00:56.639Z,48
2017-05-13T10:01:57.864Z,48
2017-05-13T10:02:59.516Z,48
2017-05-13T10:04:00.740Z,48
2017-05-13T10:05:01.993Z,48
2017-05-13T10:06:03.559Z,48
2017-05-13T10:07:04.785Z,48
2017-05-13T10:08:06.027Z,48
2017-05-13T10:09:07.254Z,48
2017-05-13T10:10:08.477Z,48
2017-05-13T10:11:09.699Z,48
2017-05-13T10:12:10.925Z,48
2017-05-13T10:13:12.145Z,48
2017-05-13T10:14:13.378Z,48
2017-05-13T10:15:14.618Z,48
2017-05-13T10:16:15.835Z,48
2017-05-13T10:17:17.812Z,48
2017-05-13T10:18:19.031Z,48
2017-05-13T10:19:20.268Z,48
2017-05-13T10:20:21.488Z,48
2017-05-13T10:21:22.753Z,48
2017-05-13T10:22:24.000Z,48
2017-05-13T10:23:25.223Z,48
2017-05-13T10:24:26.462Z,48
2017-05-13T10:25:28.090Z,48
2017-05-13T10:26:29.380Z,48
2017-05-13T10:27:30.590Z,48
2017-05-13T10:28:31.828Z,48
2017-05-13T10:29:33.042Z,48
2017-05-13T10:30:34.290Z,48
2017-05-13T10:31:35.516Z,48
2017-05-13T10:32:36.741Z,48
2017-05-13T10:33:37.969Z,48
2017-05-13T10:34:39.208Z,48
2017-05-13T10:35:40.426Z,48
2017-05-13T10:36:41.651Z,48
2017-05-13T10:37:42.879Z,48
2017-05-13T10:38:44.149Z,48
2017-05-13T10:39:45.711Z,48
2017-05-13T10:40:46.943Z,48
2017-05-13T10:41:48.163Z,48
2017-05-13T10:42:49.399Z,48
2017-05-13T10:43:50.616Z,48
2017-05-13T10:44:51.857Z,48
2017-05-13T10:45:53.086Z,48
2017-05-13T10:46:54.314Z,48
2017-05-13T10:47:55.537Z,48
2017-05-13T10:48:56.772Z,48
2017-05-13T10:49:58.410Z,48
2017-05-13T10:50:59.633Z,48
2017-05-13T10:52:00.865Z,48
2017-05-13T10:53:02.091Z,48
2017-05-13T10:54:03.331Z,48
2017-05-13T10:55:04.584Z,48
2017-05-13T10:56:05.823Z,48
2017-05-13T10:57:07.038Z,48
2017-05-13T10:58:08.270Z,48
2017-05-13T10:59:09.906Z,47
2017-05-13T11:00:11.126Z,48
2017-05-13T11:01:12.352Z,47
2017-05-13T11:02:13.570Z,47
2017-05-13T11:03:14.799Z,47
2017-05-13T11:04:16.034Z,47
2017-05-13T11:05:17.249Z,47
2017-05-13T11:06:18.478Z,47
2017-05-13T11:07:19.694Z,47
2017-05-13T11:08:20.936Z,48
2017-05-13T11:09:22.151Z,47
2017-05-13T11:10:23.387Z,47
2017-05-13T11:11:24.610Z,47
2017-05-13T11:12:25.826Z,47
2017-05-13T11:13:27.060Z,47
2017-05-13T11:14:28.287Z,47
2017-05-13T11:15:29.530Z,47
2017-05-13T11:16:30.743Z,47
2017-05-13T11:17:31.981Z,47
2017-05-13T11:18:33.191Z,47
2017-05-13T11:19:34.437Z,47
2017-05-13T11:20:35.669Z,47
2017-05-13T11:21:37.314Z,47
2017-05-13T11:22:38.564Z,47
2017-05-13T11:23:39.780Z,47
2017-05-13T11:24:41.014Z,47
2017-05-13T11:25:42.249Z,47
2017-05-13T11:26:43.466Z,47
2017-05-13T11:27:44.692Z,47
2017-05-13T11:28:45.916Z,47
2017-05-13T11:29:47.146Z,47
2017-05-13T11:30:48.370Z,47
2017-05-13T11:31:49.599Z,47
2017-05-13T11:32:50.810Z,47
2017-05-13T11:33:52.041Z,47
2017-05-13T11:34:53.263Z,47
2017-05-13T11:35:54.502Z,47
2017-05-13T11:36:55.723Z,47
2017-05-13T11:37:56.948Z,47
2017-05-13T11:38:58.527Z,47
2017-05-13T11:39:59.755Z,47
2017-05-13T11:41:00.985Z,47
2017-05-13T11:42:02.206Z,47
2017-05-13T11:43:03.452Z,47
2017-05-13T11:44:04.673Z,47
2017-05-13T11:45:05.902Z,47
2017-05-13T11:46:07.120Z,47
2017-05-13T11:47:08.677Z,47
2017-05-13T11:48:09.907Z,47
2017-05-13T11:49:11.128Z,47
2017-05-13T11:50:12.351Z,47
2017-05-13T11:51:13.567Z,47
2017-05-13T11:52:15.143Z,47
2017-05-13T11:53:16.378Z,47
2017-05-13T11:54:17.599Z,47
2017-05-13T11:55:18.832Z,47
2017-05-13T11:56:20.041Z,47
2017-05-13T11:57:21.282Z,47
2017-05-13T11:58:22.845Z,47
2017-05-13T11:59:24.079Z,47
2017-05-13T12:00:25.311Z,47
2017-05-13T12:01:26.542Z,47
2017-05-13T12:02:27.808Z,47
2017-05-13T12:03:29.043Z,47
2017-05-13T12:04:30.281Z,47
2017-05-13T12:05:31.526Z,47
2017-05-13T12:06:32.762Z,47
2017-05-13T12:07:33.976Z,47
2017-05-13T12:08:35.220Z,47
2017-05-13T12:09:36.446Z,47
2017-05-13T12:10:37.679Z,47
2017-05-13T12:11:38.895Z,47
2017-05-13T12:12:40.111Z,47
2017-05-13T12:13:41.347Z,47
2017-05-13T12:14:42.570Z,47
2017-05-13T12:15:43.792Z,47
2017-05-13T12:16:45.708Z,47
2017-05-13T12:17:47.343Z,47
2017-05-13T12:18:48.576Z,47
2017-05-13T12:19:49.838Z,47
2017-05-13T12:20:51.069Z,47
2017-05-13T12:21:52.291Z,47
2017-05-13T12:22:53.520Z,47
2017-05-13T12:23:54.744Z,47
2017-05-13T12:24:56.022Z,47
2017-05-13T12:25:57.257Z,47
2017-05-13T12:26:58.492Z,47
2017-05-13T12:27:59.725Z,47
2017-05-13T12:29:01.359Z,47
2017-05-13T12:30:02.585Z,47
2017-05-13T12:30:39.531Z,70
2017-05-13T12:31:40.756Z,36
2017-05-13T12:32:41.974Z,37
2017-05-13T12:33:43.211Z,37
2017-05-13T12:34:44.860Z,41
2017-05-13T12:35:46.086Z,43
2017-05-13T12:36:47.324Z,44
2017-05-13T12:37:48.550Z,45
2017-05-13T12:38:49.772Z,45
2017-05-13T12:39:50.999Z,45
2017-05-13T12:40:52.216Z,46
2017-05-13T12:41:53.469Z,46
2017-05-13T12:42:54.699Z,46
2017-05-13T12:43:55.930Z,46
2017-05-13T12:44:57.173Z,46
2017-05-13T12:45:58.402Z,46
2017-05-13T12:46:59.635Z,46
2017-05-13T12:48:00.853Z,46
2017-05-13T12:49:02.086Z,46
2017-05-13T12:50:03.654Z,46
2017-05-13T12:51:04.888Z,46
2017-05-13T12:52:06.556Z,46
2017-05-13T12:53:07.778Z,46
2017-05-13T12:54:09.009Z,46
2017-05-13T12:55:10.243Z,46
2017-05-13T12:56:11.485Z,46
2017-05-13T12:57:12.708Z,46
2017-05-13T12:58:14.267Z,46
2017-05-13T12:59:15.512Z,46
2017-05-13T13:00:16.727Z,46
2017-05-13T13:01:17.965Z,46
2017-05-13T13:02:19.521Z,46
2017-05-13T13:03:20.756Z,46
2017-05-13T13:04:21.966Z,46
2017-05-13T13:05:23.194Z,46
2017-05-13T13:06:24.446Z,46
2017-05-13T13:07:25.693Z,46
2017-05-13T13:08:26.925Z,46
2017-05-13T13:09:28.153Z,47
2017-05-13T13:10:29.381Z,46
2017-05-13T13:11:30.619Z,46
2017-05-13T13:12:31.843Z,46
2017-05-13T13:13:33.071Z,46
2017-05-13T13:14:34.290Z,46
2017-05-13T13:15:35.519Z,46
2017-05-13T13:16:36.756Z,46
2017-05-13T13:17:37.988Z,46
2017-05-13T13:18:39.207Z,46
2017-05-13T13:19:40.438Z,46
2017-05-13T13:20:41.663Z,46
2017-05-13T13:21:42.890Z,46
2017-05-13T13:22:44.127Z,46
2017-05-13T13:23:45.355Z,46
2017-05-13T13:24:46.575Z,46
2017-05-13T13:25:47.817Z,46
2017-05-13T13:26:49.429Z,46
2017-05-13T13:27:50.652Z,46
2017-05-13T13:28:51.882Z,46
2017-05-13T13:29:53.102Z,46
2017-05-13T13:30:54.348Z,47
2017-05-13T13:31:55.575Z,46
2017-05-13T13:32:56.804Z,46
2017-05-13T13:33:58.019Z,46
2017-05-13T13:34:59.250Z,47
2017-05-13T13:36:00.492Z,47
2017-05-13T13:37:01.711Z,46
2017-05-13T13:38:02.938Z,47
2017-05-13T13:39:04.161Z,46
2017-05-13T13:40:05.380Z,46
2017-05-13T13:41:07.004Z,46
2017-05-13T13:42:08.286Z,46
2017-05-13T13:43:09.520Z,47
2017-05-13T13:44:10.744Z,47
2017-05-13T13:45:11.978Z,46
2017-05-13T13:46:13.197Z,47
2017-05-13T13:47:14.436Z,46
2017-05-13T13:48:15.665Z,46
2017-05-13T13:49:16.886Z,46
2017-05-13T13:50:18.130Z,46
2017-05-13T13:51:19.359Z,46
2017-05-13T13:52:20.602Z,46
2017-05-13T13:53:21.826Z,46
2017-05-13T13:54:23.062Z,46
2017-05-13T13:55:24.285Z,46
2017-05-13T13:56:25.530Z,47
2017-05-13T13:57:27.052Z,47
2017-05-13T13:58:28.283Z,47
2017-05-13T13:59:29.497Z,47
2017-05-13T14:00:30.715Z,46
2017-05-13T14:01:31.952Z,46
2017-05-13T14:02:33.175Z,46
2017-05-13T14:03:34.806Z,46
2017-05-13T14:04:36.032Z,46
2017-05-13T14:05:37.261Z,46
2017-05-13T14:06:38.841Z,46
2017-05-13T14:07:40.061Z,46
2017-05-13T14:08:41.295Z,46
2017-05-13T14:09:42.512Z,46
2017-05-13T14:10:43.743Z,46
2017-05-13T14:11:44.969Z,47
2017-05-13T14:12:46.211Z,47
2017-05-13T14:13:47.446Z,47
2017-05-13T14:14:48.677Z,47
2017-05-13T14:15:49.899Z,47
2017-05-13T14:16:51.132Z,47
2017-05-13T14:17:52.365Z,47
2017-05-13T14:18:53.594Z,47
2017-05-13T14:19:54.830Z,47
2017-05-13T14:20:56.055Z,47
2017-05-13T14:21:57.286Z,48
2017-05-13T14:22:58.503Z,49
2017-05-13T14:23:59.721Z,48
2017-05-13T14:25:01.013Z,48
2017-05-13T14:26:02.236Z,48
2017-05-13T14:27:03.874Z,49
2017-05-13T14:28:05.516Z,49
2017-05-13T14:29:06.752Z,49
2017-05-13T14:30:07.989Z,49
2017-05-13T14:31:09.202Z,48
2017-05-13T14:32:21.413Z,70
2017-05-13T14:33:23.054Z,49
2017-05-13T14:34:24.693Z,47
2017-05-13T14:35:26.358Z,47
2017-05-13T14:36:28.024Z,47
2017-05-13T14:37:29.673Z,47
2017-05-13T14:38:31.340Z,48
2017-05-13T14:39:33.001Z,48
2017-05-13T14:40:34.642Z,48
2017-05-13T14:41:36.321Z,48
2017-05-13T14:42:37.972Z,48
2017-05-13T14:43:39.652Z,48
2017-05-13T14:44:41.306Z,48
2017-05-13T14:45:42.971Z,48
2017-05-13T14:46:44.656Z,48
2017-05-13T14:47:46.323Z,48
2017-05-13T14:48:48.321Z,48
2017-05-13T14:49:50.028Z,48
2017-05-13T14:50:51.692Z,48
2017-05-13T14:51:53.343Z,48
2017-05-13T14:52:55.016Z,48
2017-05-13T14:53:56.706Z,48
2017-05-13T14:54:58.359Z,48
2017-05-13T14:56:00.049Z,48
2017-05-13T14:57:01.692Z,48
2017-05-13T14:58:03.356Z,48
2017-05-13T14:59:05.008Z,48
2017-05-13T15:00:06.693Z,48
2017-05-13T15:01:08.377Z,48
2017-05-13T15:02:10.026Z,48
2017-05-13T15:03:11.686Z,48
2017-05-13T15:04:13.347Z,48
2017-05-13T15:05:15.020Z,48
2017-05-13T15:06:16.668Z,48
2017-05-13T15:07:18.342Z,48
2017-05-13T15:08:19.982Z,48
2017-05-13T15:09:21.652Z,48
2017-05-13T15:10:23.316Z,48
2017-05-13T15:11:24.982Z,48
2017-05-13T15:12:26.646Z,48
2017-05-13T15:13:28.306Z,48
2017-05-13T15:14:29.967Z,48
2017-05-13T15:15:31.623Z,48
2017-05-13T15:16:33.344Z,48
2017-05-13T15:17:34.995Z,48
2017-05-13T15:18:36.646Z,48
2017-05-13T15:19:38.307Z,48
2017-05-13T15:20:39.964Z,48
2017-05-13T15:21:41.633Z,48
2017-05-13T15:22:43.280Z,48
2017-05-13T15:23:45.287Z,48
2017-05-13T15:24:46.959Z,48
2017-05-13T15:25:48.623Z,48
2017-05-13T15:26:50.291Z,48
2017-05-13T15:27:51.949Z,48
2017-05-13T15:28:53.621Z,48
2017-05-13T15:29:55.272Z,48
2017-05-13T15:30:57.276Z,48
2017-05-13T15:31:58.934Z,48
2017-05-13T15:33:00.606Z,48
2017-05-13T15:34:02.255Z,48
2017-05-13T15:35:03.920Z,48
2017-05-13T15:36:05.577Z,48
2017-05-13T15:37:07.242Z,48
2017-05-13T15:38:08.901Z,48
2017-05-13T15:39:10.555Z,48
2017-05-13T15:40:12.215Z,48
2017-05-13T15:41:13.865Z,48
2017-05-13T15:42:15.530Z,48
2017-05-13T15:43:17.198Z,48
2017-05-13T15:44:18.841Z,48
2017-05-13T15:45:20.508Z,48
2017-05-13T15:46:22.496Z,48
2017-05-13T15:47:24.190Z,48
2017-05-13T15:48:25.836Z,48
2017-05-13T15:49:27.517Z,48
2017-05-13T15:50:29.169Z,48
2017-05-13T15:51:30.824Z,48
2017-05-13T15:52:32.496Z,48
2017-05-13T15:53:34.346Z,48
2017-05-13T15:54:36.065Z,48
2017-05-13T15:55:37.708Z,48
2017-05-13T15:56:39.379Z,48
2017-05-13T15:57:41.022Z,48
2017-05-13T15:58:42.699Z,48
2017-05-13T15:59:44.693Z,48
2017-05-13T16:00:46.358Z,48
2017-05-13T16:01:47.996Z,48
2017-05-13T16:02:49.647Z,48
2017-05-13T16:03:51.310Z,48
2017-05-13T16:04:52.969Z,48
2017-05-13T16:05:54.625Z,48
2017-05-13T16:06:56.280Z,48
2017-05-13T16:07:57.977Z,48
2017-05-13T16:08:59.636Z,48
2017-05-13T16:10:01.285Z,48
2017-05-13T16:11:02.953Z,48
2017-05-13T16:12:04.589Z,48
2017-05-13T16:13:06.258Z,48
2017-05-13T16:14:07.911Z,48
2017-05-13T16:15:09.581Z,48
2017-05-13T16:16:11.285Z,48
2017-05-13T16:17:12.944Z,48
2017-05-13T16:18:14.934Z,48
2017-05-13T16:19:16.618Z,48
2017-05-13T16:20:18.279Z,48
2017-05-13T16:21:19.928Z,48
2017-05-13T16:22:21.604Z,48
2017-05-13T16:23:23.592Z,48
2017-05-13T16:24:25.249Z,48
2017-05-13T16:25:26.892Z,48
2017-05-13T16:26:28.536Z,48
2017-05-13T16:27:30.197Z,48
2017-05-13T16:28:32.544Z,48
2017-05-13T16:29:34.203Z,48
2017-05-13T16:30:35.848Z,48
2017-05-13T16:31:37.551Z,48
2017-05-13T16:32:39.229Z,48
2017-05-13T16:33:40.877Z,48
2017-05-13T16:34:42.536Z,48
2017-05-13T16:35:44.176Z,48
2017-05-13T16:36:45.846Z,48
2017-05-13T16:37:47.490Z,48
2017-05-13T16:38:49.158Z,48
2017-05-13T16:39:50.817Z,48
2017-05-13T16:40:52.486Z,48
2017-05-13T16:41:54.138Z,48
2017-05-13T16:42:55.800Z,48
2017-05-13T16:43:57.666Z,48
2017-05-13T16:44:59.304Z,48
2017-05-13T16:46:00.971Z,48
2017-05-13T16:47:02.625Z,48
2017-05-13T16:48:04.297Z,48
2017-05-13T16:49:06.289Z,48
2017-05-13T16:50:07.956Z,48
2017-05-13T16:51:09.600Z,48
2017-05-13T16:52:11.249Z,48
2017-05-13T16:53:29.447Z,70
2017-05-13T16:54:31.010Z,48
2017-05-13T16:55:32.237Z,48
2017-05-13T16:56:33.481Z,48
2017-05-13T16:57:34.718Z,48
2017-05-13T16:58:35.948Z,48
2017-05-13T16:59:37.191Z,48
2017-05-13T17:00:38.425Z,50
2017-05-13T17:01:39.648Z,51
2017-05-13T17:02:40.885Z,51
2017-05-13T17:03:42.111Z,52
2017-05-13T17:04:43.365Z,52
2017-05-13T17:05:44.937Z,53
2017-05-13T17:06:46.165Z,53
2017-05-13T17:07:47.420Z,53
2017-05-13T17:08:48.660Z,53
2017-05-13T17:09:50.223Z,53
2017-05-13T17:10:51.454Z,53
2017-05-13T17:11:52.689Z,53
2017-05-13T17:12:53.923Z,52
2017-05-13T17:13:55.499Z,52
2017-05-13T17:14:56.797Z,53
2017-05-13T17:15:58.367Z,53
2017-05-13T17:16:59.603Z,53
2017-05-13T17:18:00.820Z,53
2017-05-13T17:19:02.070Z,53
2017-05-13T17:20:03.294Z,54
2017-05-13T17:21:04.515Z,54
2017-05-13T17:22:05.772Z,54
2017-05-13T17:23:07.356Z,54
2017-05-13T17:24:08.594Z,54
2017-05-13T17:25:09.815Z,54
2017-05-13T17:26:11.062Z,54
2017-05-13T17:27:12.279Z,54
2017-05-13T17:28:13.529Z,54
2017-05-13T17:29:14.743Z,54
2017-05-13T17:30:16.003Z,54
2017-05-13T17:31:17.242Z,55
2017-05-13T17:32:18.481Z,55
2017-05-13T17:33:19.719Z,55
2017-05-13T17:34:21.297Z,55
2017-05-13T17:35:22.524Z,55
2017-05-13T17:36:23.759Z,55
2017-05-13T17:37:25.002Z,55
2017-05-13T17:38:26.231Z,55
2017-05-13T17:39:27.467Z,55
2017-05-13T17:40:28.749Z,55
2017-05-13T17:41:29.975Z,55
2017-05-13T17:42:31.220Z,55
2017-05-13T17:43:32.441Z,55
2017-05-13T17:44:34.027Z,55
2017-05-13T17:45:35.274Z,55
2017-05-13T17:46:36.842Z,55
2017-05-13T17:47:38.078Z,55
2017-05-13T17:48:39.317Z,55
2017-05-13T17:49:40.568Z,55
2017-05-13T17:50:41.848Z,55
2017-05-13T17:51:43.088Z,55
2017-05-13T17:52:44.657Z,55
2017-05-13T17:53:45.907Z,55
2017-05-13T17:54:47.137Z,55
2017-05-13T17:55:48.370Z,56
2017-05-13T17:56:49.594Z,56
2017-05-13T17:57:50.833Z,56
2017-05-13T17:58:52.074Z,56
2017-05-13T17:59:53.310Z,56
2017-05-13T18:00:54.548Z,56
2017-05-13T18:01:55.773Z,56
2017-05-13T18:02:56.999Z,56
2017-05-13T18:03:58.249Z,56
2017-05-13T18:04:59.809Z,56
2017-05-13T18:06:01.058Z,56
2017-05-13T18:07:02.278Z,56
2017-05-13T18:08:03.525Z,56
2017-05-13T18:09:05.082Z,56
2017-05-13T18:10:06.341Z,56
2017-05-13T18:11:07.572Z,56
2017-05-13T18:12:08.803Z,57
2017-05-13T18:13:10.046Z,57
2017-05-13T18:14:11.274Z,57
2017-05-13T18:15:12.529Z,57
2017-05-13T18:16:13.840Z,57
2017-05-13T18:17:15.077Z,57
2017-05-13T18:18:16.295Z,57
2017-05-13T18:19:17.545Z,57
2017-05-13T18:20:18.783Z,57
2017-05-13T18:21:20.038Z,57
2017-05-13T18:22:21.259Z,57
2017-05-13T18:23:22.485Z,57
2017-05-13T18:24:23.731Z,57
2017-05-13T18:25:24.970Z,57
2017-05-13T18:26:26.203Z,57
2017-05-13T18:27:27.432Z,57
2017-05-13T18:28:28.657Z,57
2017-05-13T18:29:29.895Z,57
2017-05-13T18:30:31.124Z,57
2017-05-13T18:31:32.365Z,57
2017-05-13T18:32:33.925Z,57
2017-05-13T18:33:35.163Z,57
2017-05-13T18:34:36.429Z,57
2017-05-13T18:35:37.675Z,57
2017-05-13T18:36:38.911Z,57
2017-05-13T18:37:40.153Z,57
2017-05-13T18:38:41.397Z,57
2017-05-13T18:39:42.622Z,57
2017-05-13T18:40:43.859Z,57
2017-05-13T18:41:45.090Z,57
2017-05-13T18:42:46.342Z,57
2017-05-13T18:43:47.579Z,57
2017-05-13T18:44:48.820Z,58
2017-05-13T18:45:50.048Z,58
2017-05-13T18:46:51.275Z,58
2017-05-13T18:47:52.511Z,58
2017-05-13T18:48:53.743Z,58
2017-05-13T18:49:54.974Z,58
2017-05-13T18:50:56.200Z,58
2017-05-13T18:51:57.444Z,58
2017-05-13T18:52:58.700Z,57
2017-05-13T18:53:59.932Z,57
2017-05-13T18:55:01.175Z,57
2017-05-13T18:56:02.391Z,57
2017-05-13T18:57:03.641Z,57
2017-05-13T18:58:04.862Z,57
2017-05-13T18:59:06.117Z,57
2017-05-13T19:00:07.346Z,57
2017-05-13T19:01:08.586Z,57
2017-05-13T19:02:09.818Z,57
2017-05-13T19:03:11.058Z,57
2017-05-13T19:04:12.305Z,57
2017-05-13T19:05:13.528Z,57
2017-05-13T19:06:14.770Z,57
2017-05-13T19:07:15.992Z,57
2017-05-13T19:08:17.281Z,57
2017-05-13T19:09:18.518Z,57
2017-05-13T19:10:19.761Z,57
2017-05-13T19:11:20.978Z,57
2017-05-13T19:12:22.200Z,57
2017-05-13T19:13:23.797Z,57
2017-05-13T19:14:25.028Z,57
2017-05-13T19:15:26.259Z,57
2017-05-13T19:16:27.488Z,57
2017-05-13T19:17:28.718Z,57
2017-05-13T19:18:29.963Z,58
2017-05-13T19:19:31.191Z,58
2017-05-13T19:20:32.428Z,58
2017-05-13T19:21:33.650Z,58
2017-05-13T19:22:34.890Z,58
2017-05-13T19:23:36.121Z,58
2017-05-13T19:24:37.371Z,58
2017-05-13T19:25:38.613Z,58
2017-05-13T19:26:39.854Z,58
2017-05-13T19:27:41.434Z,58
2017-05-13T19:28:42.678Z,58
2017-05-13T19:29:43.905Z,58
2017-05-13T19:30:45.177Z,58
2017-05-13T19:31:46.429Z,58
2017-05-13T19:32:47.664Z,58
2017-05-13T19:33:48.915Z,58
2017-05-13T19:34:50.143Z,58
2017-05-13T19:35:51.381Z,58
2017-05-13T19:36:52.618Z,58
2017-05-13T19:37:53.848Z,58
2017-05-13T19:38:55.081Z,58
2017-05-13T19:39:56.315Z,58
2017-05-13T19:40:57.541Z,58
2017-05-13T19:41:58.827Z,58
2017-05-13T19:43:00.076Z,58
2017-05-13T19:44:01.663Z,58
2017-05-13T19:45:02.882Z,58
2017-05-13T19:46:04.129Z,58
2017-05-13T19:47:05.352Z,58
2017-05-13T19:48:06.605Z,58
2017-05-13T19:49:07.839Z,59
2017-05-13T19:50:09.081Z,59
2017-05-13T19:51:10.311Z,59
2017-05-13T19:52:11.551Z,58
2017-05-13T19:53:12.777Z,59
2017-05-13T19:54:14.067Z,59
2017-05-13T19:55:15.299Z,59
2017-05-13T19:56:16.549Z,59
2017-05-13T19:57:17.799Z,59
2017-05-13T19:58:19.031Z,59
2017-05-13T19:59:20.277Z,59
2017-05-13T20:00:21.497Z,59
2017-05-13T20:01:22.729Z,59
2017-05-13T20:02:23.976Z,58
2017-05-13T20:03:25.543Z,58
2017-05-13T20:04:26.778Z,57
2017-05-13T20:05:28.017Z,56
2017-05-13T20:06:29.251Z,56
2017-05-13T20:07:30.478Z,56
2017-05-13T20:08:31.728Z,55
2017-05-13T20:09:32.965Z,55
2017-05-13T20:10:34.515Z,55
2017-05-13T20:11:35.772Z,55
2017-05-13T20:12:37.052Z,54
2017-05-13T20:13:38.292Z,54
2017-05-13T20:14:39.565Z,54
2017-05-13T20:15:40.798Z,54
2017-05-13T20:16:42.054Z,54
2017-05-13T20:17:43.309Z,54
2017-05-13T20:18:44.536Z,54
2017-05-13T20:19:45.782Z,54
2017-05-13T20:20:47.018Z,54
2017-05-13T20:21:48.244Z,54
2017-05-13T20:22:49.498Z,53
2017-05-13T20:23:50.725Z,53
2017-05-13T20:24:51.966Z,53
2017-05-13T20:25:53.193Z,53
2017-05-13T20:26:54.442Z,53
2017-05-13T20:27:55.672Z,53
2017-05-13T20:28:56.914Z,53
2017-05-13T20:29:58.138Z,53
2017-05-13T20:30:59.383Z,53
2017-05-13T20:32:00.628Z,53
2017-05-13T20:33:02.204Z,53
2017-05-13T20:34:03.440Z,53
2017-05-13T20:35:05.004Z,53
2017-05-13T20:36:06.255Z,53
2017-05-13T20:37:07.499Z,53
2017-05-13T20:38:08.725Z,53
2017-05-13T20:39:09.967Z,53
2017-05-13T20:40:11.518Z,53
2017-05-13T20:41:12.766Z,52
2017-05-13T20:42:13.992Z,52
2017-05-13T20:43:15.231Z,52
2017-05-13T20:44:16.453Z,52
2017-05-13T20:45:17.693Z,52
2017-05-13T20:46:18.968Z,52
2017-05-13T20:47:20.197Z,52
2017-05-13T20:48:21.439Z,52
2017-05-13T20:49:22.676Z,52
2017-05-13T20:50:23.899Z,52
2017-05-13T20:51:25.151Z,52
2017-05-13T20:52:26.713Z,52
2017-05-13T20:53:27.960Z,52
2017-05-13T20:54:29.515Z,52
2017-05-13T20:55:31.103Z,52
2017-05-13T20:56:32.334Z,52
2017-05-13T20:57:33.581Z,52
2017-05-13T20:58:34.816Z,52
2017-05-13T20:59:36.051Z,52
2017-05-13T21:00:37.289Z,52
2017-05-13T21:01:38.521Z,52
2017-05-13T21:02:39.776Z,52
2017-05-13T21:03:41.018Z,52
2017-05-13T21:04:42.245Z,52
2017-05-13T21:05:43.814Z,52
2017-05-13T21:06:45.396Z,52
2017-05-13T21:07:46.978Z,52
2017-05-13T21:08:48.545Z,52
2017-05-13T21:09:49.789Z,52
2017-05-13T21:10:51.020Z,52
2017-05-13T21:11:52.252Z,52
2017-05-13T21:12:53.494Z,52
2017-05-13T21:13:54.721Z,52
2017-05-13T21:14:56.287Z,52
2017-05-13T21:15:57.545Z,52
2017-05-13T21:16:58.773Z,52
2017-05-13T21:18:00.345Z,52
2017-05-13T21:19:01.570Z,52
2017-05-13T21:20:02.801Z,52
2017-05-13T21:21:04.039Z,52
2017-05-13T21:22:05.271Z,51
2017-05-13T21:23:06.507Z,51
2017-05-13T21:24:07.769Z,51
2017-05-13T21:25:09.354Z,51
2017-05-13T21:26:10.583Z,51
2017-05-13T21:27:11.835Z,51
2017-05-13T21:28:13.077Z,51
2017-05-13T21:29:14.301Z,51
2017-05-13T21:30:15.560Z,51
2017-05-13T21:31:16.789Z,51
2017-05-13T21:32:18.044Z,51
2017-05-13T21:33:19.276Z,51
2017-05-13T21:34:20.545Z,51
2017-05-13T21:35:21.784Z,51
2017-05-13T21:36:23.040Z,51
2017-05-13T21:37:24.295Z,51
2017-05-13T21:38:25.574Z,51
2017-05-13T21:39:26.834Z,51
2017-05-13T21:40:28.099Z,51
2017-05-13T21:41:29.686Z,51
2017-05-13T21:42:30.939Z,51
2017-05-13T21:43:32.162Z,51
2017-05-13T21:44:33.757Z,51
2017-05-13T21:45:34.975Z,51
2017-05-13T21:46:36.208Z,51
2017-05-13T21:47:37.452Z,51
2017-05-13T21:48:38.700Z,51
2017-05-13T21:49:39.937Z,51
2017-05-13T21:50:41.186Z,51
2017-05-13T21:51:42.418Z,51
2017-05-13T21:52:43.640Z,51
2017-05-13T21:53:44.883Z,51
2017-05-13T21:54:46.124Z,51
2017-05-13T21:55:47.691Z,51
2017-05-13T21:56:48.970Z,51
2017-05-13T21:57:50.200Z,51
2017-05-13T21:58:51.794Z,51
2017-05-13T21:59:53.028Z,51
2017-05-13T22:00:54.266Z,51
2017-05-13T22:01:55.508Z,51
2017-05-13T22:02:56.733Z,51
2017-05-13T22:03:57.965Z,51
2017-05-13T22:04:59.214Z,51
2017-05-13T22:06:00.471Z,51
2017-05-13T22:07:02.057Z,51
2017-05-13T22:08:03.296Z,51
2017-05-13T22:09:04.531Z,51
2017-05-13T22:10:05.769Z,51
2017-05-13T22:11:06.993Z,51
2017-05-13T22:12:08.235Z,51
2017-05-13T22:13:09.478Z,51
2017-05-13T22:14:10.703Z,51
2017-05-13T22:15:11.930Z,51
2017-05-13T22:16:13.176Z,51
2017-05-13T22:17:14.747Z,51
2017-05-13T22:18:15.990Z,51
2017-05-13T22:19:17.222Z,51
2017-05-13T22:20:18.436Z,51
2017-05-13T22:21:19.685Z,51
2017-05-13T22:22:20.909Z,51
2017-05-13T22:23:22.147Z,51
2017-05-13T22:24:23.384Z,51
2017-05-13T22:25:24.620Z,51
2017-05-13T22:26:26.187Z,51
2017-05-13T22:27:27.437Z,51
2017-05-13T22:28:28.690Z,51
2017-05-13T22:29:30.312Z,51
2017-05-13T22:30:31.538Z,51
2017-05-13T22:31:32.768Z,51
2017-05-13T22:32:34.012Z,51
2017-05-13T22:33:35.273Z,51
2017-05-13T22:34:36.837Z,51
2017-05-13T22:35:38.069Z,51
2017-05-13T22:36:39.304Z,51
2017-05-13T22:37:40.581Z,51
2017-05-13T22:38:41.814Z,51
2017-05-13T22:39:43.068Z,51
2017-05-13T22:40:44.645Z,51
2017-05-13T22:41:45.863Z,51
2017-05-13T22:42:47.113Z,51
2017-05-13T22:43:48.347Z,51
2017-05-13T22:44:49.596Z,51
2017-05-13T22:45:50.814Z,51
2017-05-13T22:46:52.037Z,51
2017-05-13T22:47:53.282Z,51
2017-05-13T22:48:54.516Z,51
2017-05-13T22:49:56.080Z,51
2017-05-13T22:50:57.325Z,51
2017-05-13T22:51:58.557Z,51
2017-05-13T22:52:59.785Z,51
2017-05-13T22:54:01.031Z,51
2017-05-13T22:55:02.274Z,51
2017-05-13T22:56:03.506Z,51
2017-05-13T22:57:04.729Z,51
2017-05-13T22:58:05.969Z,51
2017-05-13T22:59:07.213Z,51
2017-05-13T23:00:08.441Z,51
2017-05-13T23:01:09.680Z,51
2017-05-13T23:02:10.921Z,51
2017-05-13T23:03:12.143Z,51
2017-05-13T23:04:13.367Z,51
2017-05-13T23:05:14.607Z,51
2017-05-13T23:06:15.841Z,51
2017-05-13T23:07:17.113Z,51
2017-05-13T23:08:18.344Z,51
2017-05-13T23:09:19.585Z,51
2017-05-13T23:10:20.809Z,51
2017-05-13T23:11:22.051Z,51
2017-05-13T23:12:23.634Z,51
2017-05-13T23:13:25.552Z,51
2017-05-13T23:14:26.790Z,51
2017-05-13T23:15:28.028Z,51
2017-05-13T23:16:29.288Z,51
2017-05-13T23:17:30.532Z,51
2017-05-13T23:18:31.778Z,51
2017-05-13T23:19:33.365Z,51
2017-05-13T23:20:34.591Z,51
2017-05-13T23:21:35.843Z,51
2017-05-13T23:22:37.089Z,51
2017-05-13T23:23:38.347Z,51
2017-05-13T23:24:39.565Z,51
2017-05-13T23:25:40.797Z,51
2017-05-13T23:26:42.035Z,51
2017-05-13T23:27:43.278Z,51
2017-05-13T23:28:44.873Z,51
2017-05-13T23:29:46.099Z,51
2017-05-13T23:30:47.650Z,51
2017-05-13T23:31:48.894Z,51
2017-05-13T23:32:50.145Z,51
2017-05-13T23:33:51.406Z,51
2017-05-13T23:34:52.635Z,51
2017-05-13T23:35:53.891Z,51
2017-05-13T23:36:55.109Z,51
2017-05-13T23:37:56.353Z,51
2017-05-13T23:38:57.585Z,51
2017-05-13T23:39:58.822Z,51
2017-05-13T23:41:00.398Z,51
2017-05-13T23:42:01.643Z,51
2017-05-13T23:43:02.888Z,51
2017-05-13T23:44:04.132Z,51
2017-05-13T23:45:05.705Z,51
2017-05-13T23:46:06.941Z,51
2017-05-13T23:47:08.506Z,51
2017-05-13T23:48:09.749Z,51
2017-05-13T23:49:10.983Z,51
2017-05-13T23:50:12.230Z,51
2017-05-13T23:51:13.451Z,51
2017-05-13T23:52:14.699Z,51
2017-05-13T23:53:16.280Z,51
2017-05-13T23:54:17.843Z,51
2017-05-13T23:55:19.125Z,51
2017-05-13T23:56:20.344Z,51
2017-05-13T23:57:21.933Z,51
2017-05-13T23:58:23.163Z,51
2017-05-13T23:59:24.399Z,51
